Terminal Aerodrome Forecast
Issued by NWS

Home | Current Version | Previous Version | Text Only | Print | Product List | Glossary On
Versions: 1 2 3 4 5 6 7 8 9 10 11 12 13 14 15 16 17 18 19 20 21 22 23 24 25 26 27 28 29
000
FTUS41 KOKX 061130
TAFHPN
TAF
KHPN 061130Z 0612/0712 VRB03KT 6SM BR BKN250
      TEMPO 0612/0613 5SM BR
     FM061400 16005KT 6SM HZ SCT080 BKN150
     FM061600 15007KT P6SM BKN080
     FM062200 14006KT P6SM SCT050 BKN100
     FM070300 13004KT P6SM SCT020 BKN120
     FM070600 13004KT 4SM BR BKN015
     FM070800 13004KT 2SM BR BKN008 PROB30 0709/0712 -SHRA
      AMD NOT SKED=

USA.gov is the U.S. government's official web portal to all federal, state and local government web resources and services.